Augusta State Airport Augusta US
ICAO: KAUG
IATA: AUG
Category: Medium
Scheduled Services: Yes

Elevation: 352 ft
TransAlt. 18000 ft.

Airport Communications:
PORTLAND APP/DEP:128.35
ASOS:118.325
CLNC DEL:119.95
BANGOR RDO:122.6
CTAF/UNICOM:123

KAUG Zoom In..

If you have problems with the map follow the link
https://www.worldairports.se/pages/airport.php?
ICAO=KAUG

Runways:

(A) RW 08 length 2703 ft width 75 ft
---- / hdg 80

(B) RW 17 length 5001 ft width 100 ft
ILS 108.70 / hdg 171

(C) RW 26 length 2703 ft width 75 ft
---- / hdg 260

(D) RW 35 length 5001 ft width 100 ft
---- / hdg 351

Location; KAUG
Day. 27 / Time. 05.53 Zulu
* Altimeter: 29.54
* Temperature: 00° c. 32°f.
* Wind from: 200° Speed 05 kn.
Dewpoint: -02° c.
Visibility: 10 Statute Miles.
Clouds: Overcast 4500 ft.

KAUG 270553Z AUTO 20005KT 10SM OVC045 00/M02 A2954 RMK AO2 SLP005 T00001022 10028 21006 56005


Wind From 200°
Speed 05 kn.

 
 
jpsmedia worldairports.se 2020   terms of use